Time;durP1;ratioP1;P1;durP2;ratioP2;P2;SDS_P1;SDS_P2;PMS_P1;PMS_P2;Temp;Humidity;BMP_temperature;BMP_pressure;BME280_temperature;BME280_humidity;BME280_pressure;Samples;Min_cycle;Max_cycle;Signal;HPM_P1;HPM_P2
2022/03/19 00:00:38;;;;;;;8.67;4.17;;;7.20;1.00;7.50;103047.00;;;;5084542;28;20844;-81
2022/03/19 00:03:08;;;;;;;7.03;3.90;;;7.20;1.00;7.50;103044.00;;;;5084027;28;20442;-80
2022/03/19 00:05:37;;;;;;;9.43;3.60;;;7.10;1.00;7.50;103050.00;;;;5082161;28;20478;-79
2022/03/19 00:08:06;;;;;;;6.60;4.53;;;7.10;1.00;7.50;103029.00;;;;5077647;28;20564;-80
2022/03/19 00:10:34;;;;;;;7.03;3.53;;;7.10;1.00;7.50;103057.00;;;;5075895;28;20442;-79
2022/03/19 00:13:02;;;;;;;4.60;3.13;;;7.10;1.00;7.50;103041.00;;;;5082272;28;20450;-80
2022/03/19 00:15:31;;;;;;;8.93;3.30;;;7.10;1.00;7.50;103054.00;;;;5077331;28;20947;-80
2022/03/19 00:17:59;;;;;;;10.43;3.77;;;6.80;1.00;7.50;103051.00;;;;5088008;28;20489;-80
2022/03/19 00:20:29;;;;;;;8.93;3.40;;;7.10;1.00;7.50;103041.00;;;;5086559;28;20450;-78
2022/03/19 00:22:57;;;;;;;8.80;3.87;;;7.10;1.00;7.40;103048.00;;;;5082834;28;21093;-81
2022/03/19 00:25:26;;;;;;;7.37;4.07;;;7.10;1.00;7.30;103036.00;;;;5084904;28;20827;-80
2022/03/19 00:27:54;;;;;;;7.47;4.23;;;7.00;1.00;7.40;103030.00;;;;5086718;28;20469;-81
2022/03/19 00:30:23;;;;;;;7.30;4.73;;;7.00;1.00;7.30;103042.00;;;;5083756;28;20533;-81
2022/03/19 00:32:51;;;;;;;7.00;3.60;;;7.00;1.00;7.40;103008.00;;;;5081371;28;20532;-80
2022/03/19 00:35:20;;;;;;;7.83;3.50;;;7.30;1.00;7.30;103020.00;;;;5082519;28;20828;-79
2022/03/19 00:37:53;;;;;;;8.00;3.90;;;7.00;1.00;7.30;103023.00;;;;5082977;28;20538;-77
2022/03/19 00:40:23;;;;;;;6.33;3.50;;;7.20;1.00;7.30;103033.00;;;;5083562;28;20442;-79
2022/03/19 00:42:52;;;;;;;8.70;3.97;;;6.90;1.00;7.30;103041.00;;;;5099914;28;20442;-79
2022/03/19 00:45:20;;;;;;;5.93;3.40;;;6.90;1.00;7.20;103016.00;;;;5105148;28;20503;-79
2022/03/19 00:47:49;;;;;;;6.90;3.13;;;6.90;1.00;7.20;103008.00;;;;5096991;28;20470;-81
2022/03/19 00:50:17;;;;;;;11.87;5.10;;;6.90;1.00;7.30;103036.00;;;;5109867;28;21206;-79
2022/03/19 00:52:45;;;;;;;6.37;3.50;;;6.90;1.00;7.30;103020.00;;;;5099512;28;21002;-80
2022/03/19 00:55:15;;;;;;;6.67;4.03;;;6.90;1.00;7.30;103025.00;;;;5094739;28;21001;-79
2022/03/19 00:57:45;;;;;;;7.40;3.80;;;6.90;1.00;7.30;103031.00;;;;5084471;28;20488;-81
2022/03/19 01:00:16;;;;;;;10.70;3.53;;;7.10;1.00;7.10;103042.00;;;;5083727;28;20989;-80
2022/03/19 01:02:46;;;;;;;6.33;3.43;;;6.80;1.00;7.10;103032.00;;;;5103777;28;20458;-79
2022/03/19 01:05:16;;;;;;;5.10;3.50;;;6.70;1.00;7.10;103032.00;;;;5085553;28;20493;-79
2022/03/19 01:07:47;;;;;;;6.20;3.30;;;6.70;1.00;7.10;103037.00;;;;5086615;28;20500;-80
2022/03/19 01:10:20;;;;;;;7.03;3.90;;;6.70;1.00;7.10;103015.00;;;;5079567;28;20456;-77
2022/03/19 01:12:50;;;;;;;6.70;3.23;;;6.70;1.00;7.00;103010.00;;;;5076873;28;20548;-79
2022/03/19 01:15:19;;;;;;;7.70;3.67;;;6.90;1.00;7.10;103012.00;;;;5086468;28;20457;-77
2022/03/19 01:17:47;;;;;;;9.97;4.20;;;6.70;1.00;7.00;103000.00;;;;5086807;28;20535;-79
2022/03/19 01:20:17;;;;;;;4.70;3.80;;;6.60;1.00;7.00;103012.00;;;;5085351;28;20519;-77
2022/03/19 01:22:47;;;;;;;6.60;3.30;;;6.60;1.00;7.00;103002.00;;;;5087043;28;20986;-77
2022/03/19 01:25:19;;;;;;;6.93;3.40;;;6.60;1.00;6.90;103031.00;;;;5078086;28;20467;-78
2022/03/19 01:27:49;;;;;;;8.07;3.57;;;6.60;1.00;6.80;103016.00;;;;5084272;28;20477;-77
2022/03/19 01:30:21;;;;;;;5.53;4.00;;;6.50;1.00;6.80;103011.00;;;;5083969;28;20457;-77
2022/03/19 01:32:50;;;;;;;6.57;3.60;;;6.40;1.00;6.80;103017.00;;;;5086512;28;20442;-78
2022/03/19 01:35:20;;;;;;;9.33;5.10;;;6.40;1.00;6.80;103017.00;;;;5086661;28;20487;-77
2022/03/19 01:37:49;;;;;;;6.10;3.77;;;6.40;1.00;6.80;103000.00;;;;5082678;28;20485;-77
2022/03/19 01:40:20;;;;;;;6.53;3.70;;;6.80;1.00;6.70;103000.00;;;;5101309;28;20451;-76
2022/03/19 01:42:51;;;;;;;7.27;3.87;;;6.40;1.00;6.70;103010.00;;;;5085585;28;20468;-78
2022/03/19 01:45:24;;;;;;;7.37;4.23;;;6.30;1.00;6.60;103003.00;;;;5099561;27;20517;-79
2022/03/19 01:47:54;;;;;;;6.00;3.73;;;6.30;1.00;6.50;103007.00;;;;5085101;28;20465;-81
2022/03/19 01:50:27;;;;;;;5.47;3.70;;;6.20;1.00;6.50;102986.00;;;;5086719;28;20446;-78
2022/03/19 01:52:56;;;;;;;6.43;3.83;;;6.20;1.00;6.50;103007.00;;;;5087148;28;20442;-77
2022/03/19 01:55:28;;;;;;;6.57;4.00;;;6.10;1.00;6.50;103007.00;;;;5079165;28;20454;-78
2022/03/19 01:57:58;;;;;;;6.17;4.03;;;6.40;1.00;6.40;102980.00;;;;5086398;28;20476;-77
2022/03/19 02:00:27;;;;;;;5.90;3.40;;;5.80;1.00;6.50;102991.00;;;;5085513;28;20451;-76
2022/03/19 02:02:55;;;;;;;7.40;4.53;;;6.00;1.00;6.50;102974.00;;;;5086412;28;20452;-78
2022/03/19 02:05:25;;;;;;;5.60;3.60;;;6.10;1.00;6.50;102961.00;;;;5085000;28;20465;-79
2022/03/19 02:07:54;;;;;;;8.10;3.60;;;6.10;1.00;6.40;102988.00;;;;5089368;28;20470;-80
2022/03/19 02:10:24;;;;;;;7.00;3.30;;;6.20;1.00;6.40;102989.00;;;;5085826;28;21224;-77
2022/03/19 02:12:55;;;;;;;8.43;4.00;;;6.00;1.00;6.30;102983.00;;;;5096573;28;20453;-80
2022/03/19 02:15:24;;;;;;;8.37;4.23;;;6.00;1.00;6.40;102962.00;;;;5088204;28;20494;-79
2022/03/19 02:17:53;;;;;;;6.83;3.27;;;6.00;1.00;6.50;102980.00;;;;5100820;27;20474;-77
2022/03/19 02:20:22;;;;;;;5.60;3.70;;;6.10;1.00;6.30;102975.00;;;;5102889;28;20465;-78
2022/03/19 02:25:37;;;;;;;9.07;3.93;;;6.00;1.00;6.40;102977.00;;;;5090032;28;20438;-78
2022/03/19 02:28:06;;;;;;;6.80;3.60;;;5.90;1.00;6.30;102989.00;;;;5088701;28;20488;-80
2022/03/19 02:30:40;;;;;;;7.20;3.87;;;5.90;1.00;6.10;102967.00;;;;5099637;28;20456;-78
2022/03/19 02:33:09;;;;;;;8.10;4.27;;;5.90;1.00;6.30;102969.00;;;;5110991;28;20446;-80
2022/03/19 02:35:37;;;;;;;9.50;3.87;;;5.90;1.00;6.30;102970.00;;;;5111115;28;20476;-78
2022/03/19 02:38:06;;;;;;;5.97;4.13;;;5.90;1.00;6.30;102958.00;;;;5111899;28;20454;-78
2022/03/19 02:40:34;;;;;;;8.53;3.30;;;5.90;1.00;6.30;102974.00;;;;5114742;28;20426;-77
2022/03/19 02:43:04;;;;;;;7.73;4.37;;;5.90;1.00;6.30;102948.00;;;;5108854;28;20509;-77
2022/03/19 02:45:33;;;;;;;8.87;3.93;;;5.90;1.00;6.10;102963.00;;;;5089821;28;21302;-78
2022/03/19 02:48:01;;;;;;;6.73;3.67;;;5.80;1.00;6.00;102964.00;;;;5087611;28;20478;-78
2022/03/19 02:50:32;;;;;;;7.47;3.40;;;5.80;1.00;6.10;102971.00;;;;5097749;28;20449;-78
2022/03/19 02:53:03;;;;;;;10.10;4.43;;;5.80;1.00;6.20;102968.00;;;;5112383;28;20450;-77
2022/03/19 02:55:34;;;;;;;8.50;3.70;;;5.80;1.00;6.10;102957.00;;;;5111615;28;20456;-76
2022/03/19 02:58:06;;;;;;;7.07;3.67;;;5.80;1.00;6.20;102961.00;;;;5107745;28;20497;-77
2022/03/19 03:00:35;;;;;;;8.60;4.20;;;5.80;1.00;6.10;102962.00;;;;5093694;28;20507;-79
2022/03/19 03:03:05;;;;;;;4.70;3.70;;;5.70;1.00;6.00;102969.00;;;;5086637;28;20451;-78
2022/03/19 03:05:34;;;;;;;8.37;4.13;;;5.70;1.00;6.00;102954.00;;;;5079124;28;20446;-79
2022/03/19 03:08:04;;;;;;;6.00;4.37;;;5.60;1.00;6.00;102950.00;;;;5080975;28;20919;-79
2022/03/19 03:10:33;;;;;;;8.77;4.30;;;5.60;1.00;6.10;102953.00;;;;5079688;28;20470;-79
2022/03/19 03:13:02;;;;;;;8.80;4.23;;;5.70;1.00;6.10;102971.00;;;;5082267;28;20535;-78
2022/03/19 03:15:32;;;;;;;7.53;4.10;;;5.60;1.00;5.90;102962.00;;;;5083031;28;20450;-77
2022/03/19 03:18:02;;;;;;;7.30;3.83;;;5.60;1.00;5.90;102940.00;;;;5082938;28;20602;-79
2022/03/19 03:20:30;;;;;;;8.60;4.17;;;5.50;1.00;5.90;102947.00;;;;5089119;28;20474;-78
2022/03/19 03:22:58;;;;;;;8.90;4.47;;;5.50;1.00;5.90;102950.00;;;;5109587;28;20442;-77
2022/03/19 03:25:27;;;;;;;6.83;4.17;;;5.50;1.00;5.90;102923.00;;;;5098107;28;20439;-76
2022/03/19 03:27:55;;;;;;;8.50;4.07;;;5.50;1.00;5.90;102939.00;;;;5110689;28;20458;-76
2022/03/19 03:30:24;;;;;;;8.13;4.50;;;5.50;1.00;6.00;102939.00;;;;5107866;28;20482;-78
2022/03/19 03:32:53;;;;;;;13.93;4.40;;;5.60;1.00;6.00;102936.00;;;;5081361;28;20446;-78
2022/03/19 03:35:25;;;;;;;7.50;4.53;;;5.60;1.00;5.80;102930.00;;;;5102412;28;20458;-78
2022/03/19 03:37:54;;;;;;;6.60;3.83;;;5.60;1.00;5.70;102948.00;;;;5080214;28;20474;-78
2022/03/19 03:40:22;;;;;;;7.67;3.70;;;5.50;1.00;5.80;102947.00;;;;5081336;28;20488;-77
2022/03/19 03:42:51;;;;;;;8.17;4.03;;;5.40;1.00;5.80;102922.00;;;;5081092;28;20463;-77
2022/03/19 03:45:21;;;;;;;10.30;4.30;;;5.40;1.00;5.80;102941.00;;;;5081291;28;21509;-77
2022/03/19 03:47:49;;;;;;;9.23;4.13;;;5.40;1.00;5.80;102933.00;;;;5081818;28;21005;-78
2022/03/19 03:50:20;;;;;;;8.33;4.60;;;5.40;1.00;5.70;102905.00;;;;5088417;28;20461;-79
2022/03/19 03:52:49;;;;;;;7.93;4.20;;;5.30;1.00;5.70;102932.00;;;;5086608;28;20467;-79
2022/03/19 03:55:18;;;;;;;7.70;3.73;;;5.30;1.00;5.60;102903.00;;;;5089017;28;20454;-78
2022/03/19 03:57:47;;;;;;;8.83;4.73;;;5.30;1.00;5.60;102890.00;;;;5090276;28;20545;-78
2022/03/19 04:00:16;;;;;;;9.03;4.00;;;5.30;1.00;5.60;102932.00;;;;5074767;28;20470;-78
2022/03/19 04:02:44;;;;;;;6.60;3.47;;;5.20;1.00;5.50;102940.00;;;;5082124;28;20454;-80
2022/03/19 04:05:13;;;;;;;5.27;4.00;;;5.20;1.00;5.60;102915.00;;;;5074366;28;20458;-79
2022/03/19 04:07:43;;;;;;;7.20;4.17;;;5.20;1.00;5.50;102930.00;;;;5079885;28;20498;-80
2022/03/19 04:10:11;;;;;;;6.80;4.10;;;5.50;1.00;5.50;102908.00;;;;5102371;28;20523;-79
2022/03/19 04:12:40;;;;;;;9.00;4.00;;;5.10;1.00;5.50;102915.00;;;;5081536;28;20446;-79
2022/03/19 04:15:10;;;;;;;8.73;3.80;;;5.10;1.00;5.50;102918.00;;;;5085579;28;20469;-79
2022/03/19 04:17:40;;;;;;;5.83;3.63;;;5.10;1.00;5.40;102916.00;;;;5085824;28;20577;-78
2022/03/19 04:20:10;;;;;;;6.53;3.47;;;5.00;1.00;5.30;102900.00;;;;5102074;28;20484;-78
2022/03/19 04:22:42;;;;;;;9.40;4.30;;;4.90;1.00;217.30;158909.00;;;;5075681;28;20486;-78
2022/03/19 04:25:13;;;;;;;8.00;3.70;;;4.90;1.00;217.30;158947.00;;;;5100662;28;20478;-78
2022/03/19 04:27:44;;;;;;;13.27;4.03;;;4.90;1.00;5.30;102919.00;;;;5095391;28;20454;-78
2022/03/19 04:30:13;;;;;;;7.33;4.23;;;4.90;1.00;5.30;102897.00;;;;5104938;28;20942;-79
2022/03/19 04:32:43;;;;;;;9.00;3.53;;;4.90;1.00;5.20;102891.00;;;;5094720;28;20493;-78
2022/03/19 04:38:03;;;;;;;6.00;3.43;;;5.20;1.00;5.10;102897.00;;;;5093832;28;20473;-79
2022/03/19 04:40:35;;;;;;;6.83;4.20;;;5.00;1.00;5.10;102913.00;;;;5089798;28;20478;-79
2022/03/19 04:43:07;;;;;;;10.57;4.03;;;4.70;1.00;5.10;102889.00;;;;5097631;28;20449;-78
2022/03/19 04:45:36;;;;;;;14.03;4.30;;;4.70;1.00;5.10;102883.00;;;;5082417;28;20476;-79
2022/03/19 04:48:06;;;;;;;6.20;3.60;;;4.70;1.00;5.10;102911.00;;;;5080206;28;21159;-80
2022/03/19 04:50:37;;;;;;;6.50;3.20;;;4.80;1.00;5.20;102880.00;;;;5079524;28;21329;-79
2022/03/19 04:53:08;;;;;;;7.53;4.40;;;4.80;1.00;5.10;102895.00;;;;5090399;28;20438;-79
2022/03/19 04:55:38;;;;;;;7.80;3.80;;;4.70;1.00;5.20;102911.00;;;;5087959;28;20450;-79
2022/03/19 04:58:08;;;;;;;6.47;3.90;;;4.80;1.00;5.20;102919.00;;;;5088497;28;20469;-79
2022/03/19 05:00:38;;;;;;;10.87;3.50;;;4.80;1.00;5.20;102912.00;;;;5079276;28;20509;-80
2022/03/19 05:03:09;;;;;;;5.80;3.30;;;4.80;1.00;5.20;102908.00;;;;5088093;28;20474;-79
2022/03/19 05:05:38;;;;;;;10.00;3.83;;;5.30;1.00;5.30;67410.00;;;;5087057;28;20457;-79
2022/03/19 05:08:10;;;;;;;5.97;3.33;;;4.90;1.00;5.20;102928.00;;;;5084710;28;20504;-79
2022/03/19 05:13:24;;;;;;;5.47;3.60;;;4.90;1.00;5.20;102904.00;;;;5087708;28;20454;-78
2022/03/19 05:15:52;;;;;;;8.50;4.00;;;4.90;1.00;5.20;102913.00;;;;5087183;28;20450;-78
2022/03/19 05:18:21;;;;;;;7.20;3.60;;;4.90;1.00;5.20;102904.00;;;;5084539;28;21024;-79
2022/03/19 05:20:49;;;;;;;5.37;3.60;;;4.90;1.00;5.30;102928.00;;;;5085869;28;20512;-78
2022/03/19 05:23:19;;;;;;;9.90;4.37;;;4.90;1.00;5.30;102921.00;;;;5085889;28;21024;-79
2022/03/19 05:25:47;;;;;;;9.73;4.17;;;4.90;1.00;5.30;102913.00;;;;5085502;28;20455;-80
2022/03/19 05:28:16;;;;;;;8.83;4.27;;;4.90;1.00;5.30;102924.00;;;;5085203;28;21032;-80
2022/03/19 05:30:54;;;;;;;5.23;3.60;;;4.90;1.00;5.30;102912.00;;;;5093726;28;21005;-80
2022/03/19 05:34:29;;;;;;;8.17;5.07;;;4.90;1.00;5.20;102920.00;;;;5088656;28;20523;-80
2022/03/19 05:36:13;;;;;;;6.33;3.87;;;4.90;1.00;5.20;102921.00;;;;5090453;28;20460;-79
2022/03/19 05:38:43;;;;;;;6.90;4.87;;;4.80;1.00;5.20;102934.00;;;;5100820;28;20496;-80
2022/03/19 05:41:11;;;;;;;5.03;3.90;;;4.80;1.00;5.20;102913.00;;;;5092080;28;20484;-79
2022/03/19 05:43:40;;;;;;;8.40;3.93;;;4.80;1.00;5.30;102906.00;;;;5093134;28;20540;-79
2022/03/19 05:46:09;;;;;;;8.70;4.23;;;4.90;1.00;5.30;102905.00;;;;5091999;28;20856;-78
2022/03/19 05:48:37;;;;;;;8.87;4.50;;;4.90;1.00;5.30;102898.00;;;;5088197;28;20501;-78
2022/03/19 05:51:06;;;;;;;6.30;4.67;;;4.80;1.00;52.70;158966.00;;;;5080647;28;20458;-78
2022/03/19 05:53:40;;;;;;;9.17;4.90;;;4.90;1.00;5.40;102912.00;;;;5082892;28;20454;-79
2022/03/19 05:56:10;;;;;;;6.67;4.27;;;4.90;1.00;5.40;102914.00;;;;5082658;28;20461;-79
2022/03/19 05:58:39;;;;;;;8.27;4.57;;;5.00;1.00;5.60;102917.00;;;;5090858;28;20718;-80
2022/03/19 06:01:07;;;;;;;8.03;4.00;;;5.10;1.00;5.60;102899.00;;;;5109649;28;20477;-80
2022/03/19 06:03:36;;;;;;;9.23;4.47;;;5.50;1.00;5.80;102896.00;;;;5103713;28;20434;-80
2022/03/19 06:06:05;;;;;;;8.80;4.40;;;5.30;1.00;5.70;102872.00;;;;5112295;28;20525;-81
2022/03/19 06:08:33;;;;;;;7.60;5.47;;;5.30;1.00;5.80;102914.00;;;;5110031;28;20478;-80
2022/03/19 06:11:01;;;;;;;7.80;4.13;;;5.40;1.00;5.80;102917.00;;;;5104037;28;20449;-80
2022/03/19 06:13:31;;;;;;;8.50;5.00;;;5.40;1.00;5.90;102917.00;;;;5095318;28;20461;-79
2022/03/19 06:16:00;;;;;;;9.27;4.57;;;5.80;1.00;6.00;102910.00;;;;5085960;28;20476;-80
2022/03/19 06:18:28;;;;;;;8.70;4.20;;;5.50;1.00;6.10;102905.00;;;;5088813;28;20481;-79
2022/03/19 06:20:57;;;;;;;8.87;4.40;;;5.60;1.00;6.20;102874.00;;;;5089257;28;20478;-79
2022/03/19 06:23:26;;;;;;;7.00;4.73;;;5.70;1.00;6.30;102915.00;;;;5086969;28;20537;-79
2022/03/19 06:25:55;;;;;;;5.77;4.27;;;5.90;1.00;6.30;102870.00;;;;5085876;28;20527;-79
2022/03/19 06:28:24;;;;;;;9.00;4.60;;;6.00;1.00;6.40;102909.00;;;;5086064;28;21005;-79
2022/03/19 06:30:54;;;;;;;7.07;4.33;;;6.00;1.00;6.50;102890.00;;;;5080375;28;20454;-79
2022/03/19 06:33:22;;;;;;;9.17;4.20;;;6.00;1.00;6.60;102877.00;;;;5086469;28;20454;-79
2022/03/19 06:38:40;;;;;;;10.73;5.30;;;6.20;1.00;6.80;102899.00;;;;5104287;28;20580;-78
2022/03/19 06:41:08;;;;;;;7.13;4.40;;;6.30;1.00;6.80;102891.00;;;;5087580;28;20488;-79
2022/03/19 06:43:37;;;;;;;8.20;4.60;;;6.30;1.00;6.90;102912.00;;;;5090579;28;20493;-79
2022/03/19 06:46:07;;;;;;;8.03;4.43;;;6.40;1.00;6.90;102917.00;;;;5091101;28;20443;-78
2022/03/19 06:48:35;;;;;;;7.80;4.30;;;6.50;1.00;7.10;67794.00;;;;5087393;28;20568;-80
2022/03/19 06:51:04;;;;;;;7.07;4.80;;;6.90;1.00;7.20;102918.00;;;;5089094;28;20480;-79
2022/03/19 06:53:32;;;;;;;8.60;4.50;;;6.80;1.00;7.10;102915.00;;;;5089230;28;20466;-80
2022/03/19 06:56:03;;;;;;;7.00;4.30;;;6.80;1.00;7.20;102918.00;;;;5088693;28;20913;-79
2022/03/19 06:58:32;;;;;;;7.27;4.90;;;6.80;1.00;7.30;102914.00;;;;5089631;28;20484;-79
2022/03/19 07:01:01;;;;;;;9.87;4.43;;;6.80;1.00;7.40;102905.00;;;;5086937;28;20470;-81
2022/03/19 07:03:32;;;;;;;8.60;4.77;;;6.90;1.00;7.50;102908.00;;;;5088954;28;20454;-79
2022/03/19 07:06:00;;;;;;;6.40;4.70;;;7.00;1.00;7.50;102896.00;;;;5086000;28;20470;-79
2022/03/19 07:08:50;;;;;;;8.13;4.80;;;7.10;1.00;7.50;102921.00;;;;5087576;28;20569;-78
2022/03/19 07:11:18;;;;;;;6.73;4.23;;;7.10;1.00;7.60;102915.00;;;;5086638;28;20504;-80
2022/03/19 07:13:47;;;;;;;8.97;4.87;;;7.20;1.00;7.70;102913.00;;;;5087161;28;20462;-80
2022/03/19 07:16:15;;;;;;;8.47;4.80;;;7.50;1.00;7.80;102911.00;;;;5086843;28;20976;-78
2022/03/19 07:18:46;;;;;;;12.27;5.70;;;7.40;1.00;8.00;102925.00;;;;5085298;28;20909;-79
2022/03/19 07:21:15;;;;;;;8.43;4.80;;;8.00;1.00;7.80;102919.00;;;;5082036;28;20505;-80
2022/03/19 07:23:48;;;;;;;11.60;4.77;;;7.50;1.00;8.00;102884.00;;;;5102213;28;20456;-79
2022/03/19 07:26:17;;;;;;;7.90;4.57;;;7.90;1.00;8.00;102900.00;;;;5085731;28;20545;-80
2022/03/19 07:28:45;;;;;;;8.60;5.00;;;7.60;1.00;8.10;102920.00;;;;5107753;28;20477;-80
2022/03/19 07:31:13;;;;;;;7.90;4.70;;;7.70;1.00;8.20;102915.00;;;;5091855;28;20535;-80
2022/03/19 07:33:42;;;;;;;9.67;5.20;;;7.80;1.00;8.30;102925.00;;;;5096994;28;20508;-81
2022/03/19 07:36:12;;;;;;;10.23;4.60;;;7.90;1.00;8.30;102865.00;;;;5104737;28;20442;-82
2022/03/19 07:38:40;;;;;;;10.40;5.40;;;8.00;1.00;8.40;102903.00;;;;5129620;27;20478;-79
2022/03/19 07:43:57;;;;;;;9.30;5.27;;;8.20;1.00;8.60;102883.00;;;;5095177;28;20455;-79
2022/03/19 07:46:27;;;;;;;8.47;4.83;;;8.30;1.00;8.50;102887.00;;;;5089756;28;20461;-81
2022/03/19 07:48:57;;;;;;;11.20;5.70;;;8.30;1.00;8.70;102874.00;;;;5090349;28;20512;-80
2022/03/19 07:51:28;;;;;;;7.20;4.60;;;8.60;1.00;8.80;102881.00;;;;5102445;28;20443;-82
2022/03/19 07:53:57;;;;;;;8.17;4.93;;;8.40;1.00;8.70;102855.00;;;;5101980;28;20462;-80
2022/03/19 07:56:26;;;;;;;8.00;5.60;;;8.40;1.00;8.80;102905.00;;;;5103622;28;20437;-81
2022/03/19 07:58:54;;;;;;;6.50;4.80;;;8.50;1.00;8.90;102885.00;;;;5105715;28;20564;-79
2022/03/19 08:01:23;;;;;;;9.53;4.97;;;8.60;1.00;9.00;102883.00;;;;5098235;28;20470;-79
2022/03/19 08:03:54;;;;;;;8.67;5.20;;;8.80;1.00;9.00;102883.00;;;;5102745;28;20466;-80
2022/03/19 08:06:23;;;;;;;7.83;4.50;;;8.80;1.00;9.10;102874.00;;;;5104840;28;20522;-80
2022/03/19 08:08:53;;;;;;;8.43;5.40;;;8.80;1.00;9.20;102844.00;;;;5108218;28;20480;-81
2022/03/19 08:11:22;;;;;;;6.60;4.60;;;8.90;1.00;9.20;102877.00;;;;5100290;28;20446;-80
2022/03/19 08:13:52;;;;;;;11.07;5.53;;;8.90;1.00;9.20;102851.00;;;;5097523;28;20442;-80
2022/03/19 08:16:20;;;;;;;7.40;4.80;;;8.90;1.00;9.20;102837.00;;;;5093098;28;20473;-80
2022/03/19 08:18:52;;;;;;;10.47;5.67;;;8.90;1.00;9.30;102867.00;;;;5095467;28;20473;-79
2022/03/19 08:21:21;;;;;;;8.97;4.60;;;9.40;1.00;9.50;102852.00;;;;5110188;28;21046;-79
2022/03/19 08:23:49;;;;;;;7.73;5.03;;;9.10;1.00;9.60;102869.00;;;;5103284;28;20500;-81
2022/03/19 08:26:19;;;;;;;8.87;5.20;;;9.30;1.00;9.60;102866.00;;;;5105556;28;20434;-82
2022/03/19 08:28:50;;;;;;;9.30;6.07;;;9.30;1.00;9.70;102835.00;;;;5110483;27;20477;-80
2022/03/19 08:31:18;;;;;;;11.73;5.77;;;9.40;1.00;9.60;102851.00;;;;5111405;28;20448;-81
2022/03/19 08:33:48;;;;;;;11.20;5.90;;;9.40;1.00;9.70;102798.00;;;;5111615;28;20446;-81
2022/03/19 08:36:16;;;;;;;9.60;5.17;;;9.50;1.00;9.70;102810.00;;;;5109725;28;20427;-81
2022/03/19 08:41:32;;;;;;;9.60;5.57;;;9.60;1.00;9.80;102848.00;;;;5111287;28;20442;-81
2022/03/19 08:44:01;;;;;;;10.87;6.37;;;9.50;1.00;10.00;102859.00;;;;5115615;28;20430;-81
2022/03/19 08:46:30;;;;;;;8.57;5.77;;;9.70;1.00;10.00;102838.00;;;;5111070;28;20509;-81
2022/03/19 08:48:58;;;;;;;7.50;6.17;;;9.70;1.00;10.00;102788.00;;;;5111323;28;20461;-79
2022/03/19 08:51:42;;;;;;;7.93;6.03;;;9.80;1.00;10.10;102850.00;;;;5110692;28;20461;-81
2022/03/19 08:54:14;;;;;;;10.47;5.80;;;9.80;1.00;10.20;102855.00;;;;5117109;28;20460;-80
2022/03/19 08:56:46;;;;;;;12.90;7.10;;;10.00;1.00;10.30;102846.00;;;;5117056;28;21009;-80
2022/03/19 08:59:16;;;;;;;9.43;5.73;;;10.00;1.00;10.40;102839.00;;;;5106347;28;20481;-79
2022/03/19 09:01:47;;;;;;;6.33;4.53;;;10.20;1.00;10.40;102837.00;;;;5094739;28;20450;-78
2022/03/19 09:04:17;;;;;;;10.07;5.20;;;10.40;1.00;10.50;102817.00;;;;5107269;28;20478;-79
2022/03/19 09:06:46;;;;;;;10.67;5.63;;;10.30;1.00;10.60;102819.00;;;;5090624;28;20528;-79
2022/03/19 09:09:17;;;;;;;9.20;5.53;;;10.40;1.00;10.60;102818.00;;;;5093209;28;20515;-80
2022/03/19 09:11:48;;;;;;;10.93;6.30;;;10.40;1.00;10.70;102742.00;;;;5104235;28;20486;-80
2022/03/19 09:14:18;;;;;;;7.30;5.60;;;10.20;1.00;10.80;102763.00;;;;5109742;28;20426;-82
2022/03/19 09:16:46;;;;;;;8.57;5.10;;;10.60;1.00;10.80;102793.00;;;;5109340;28;20449;-83
2022/03/19 09:19:15;;;;;;;8.07;5.57;;;10.70;1.00;10.80;102785.00;;;;5102435;28;20470;-80
2022/03/19 09:21:43;;;;;;;8.10;5.80;;;10.60;1.00;10.90;102783.00;;;;5099952;28;20544;-80
2022/03/19 09:24:15;;;;;;;8.47;5.53;;;10.70;1.00;11.00;102797.00;;;;5099854;28;20544;-81
2022/03/19 09:26:46;;;;;;;6.93;5.33;;;10.80;1.00;10.90;102792.00;;;;5098771;28;20437;-80
2022/03/19 09:29:15;;;;;;;12.43;6.83;;;10.80;1.00;11.00;102748.00;;;;5102599;28;20527;-79
2022/03/19 09:31:44;;;;;;;11.43;7.83;;;10.80;1.00;11.00;102724.00;;;;5111770;28;20499;-82
2022/03/19 09:34:12;;;;;;;6.70;4.67;;;10.90;1.00;11.10;102787.00;;;;5111707;28;20523;-81
2022/03/19 09:36:46;;;;;;;7.30;4.20;;;10.90;1.00;11.20;102770.00;;;;5105109;28;20446;-82
2022/03/19 09:39:16;;;;;;;7.60;4.97;;;11.00;1.00;11.00;102709.00;;;;5117221;28;20557;-83
2022/03/19 09:41:47;;;;;;;7.77;4.87;;;10.90;1.00;11.20;102738.00;;;;5115455;28;20454;-84
2022/03/19 09:44:17;;;;;;;8.70;4.30;;;11.00;1.00;11.20;102761.00;;;;5119605;28;20481;-82
2022/03/19 09:46:47;;;;;;;4.83;3.43;;;11.00;1.00;11.20;102751.00;;;;5120526;28;20425;-83
2022/03/19 09:49:16;;;;;;;7.13;3.60;;;11.00;1.00;11.30;102739.00;;;;5116036;28;20458;-83
2022/03/19 09:51:53;;;;;;;6.93;3.93;;;11.30;1.00;11.20;102778.00;;;;5120332;28;20436;-82
2022/03/19 09:54:22;;;;;;;5.40;4.33;;;11.10;1.00;11.40;102704.00;;;;5116049;28;20454;-82
2022/03/19 09:56:53;;;;;;;8.23;5.17;;;11.20;1.00;11.50;102745.00;;;;5117428;28;20443;-81
2022/03/19 09:59:23;;;;;;;7.27;6.40;;;11.40;1.00;217.30;161652.00;;;;5116133;28;20469;-82
2022/03/19 10:01:51;;;;;;;8.30;5.90;;;11.50;1.00;11.50;102661.00;;;;5104000;28;20442;-82
2022/03/19 10:04:20;;;;;;;7.53;4.63;;;11.30;1.00;11.50;102719.00;;;;5104421;28;20450;-82
2022/03/19 10:09:45;;;;;;;7.57;5.13;;;11.30;1.00;11.70;102683.00;;;;5113496;28;20427;-82
2022/03/19 10:12:20;;;;;;;8.87;5.80;;;11.50;1.00;11.80;102682.00;;;;5106381;28;20439;-81
2022/03/19 10:14:50;;;;;;;7.90;4.90;;;11.60;1.00;11.80;102716.00;;;;5106536;28;20902;-83
2022/03/19 10:17:31;;;;;;;8.83;4.77;;;11.60;1.00;11.90;102635.00;;;;5119719;28;20459;-81
2022/03/19 10:20:05;;;;;;;4.97;4.30;;;11.80;1.00;11.90;102704.00;;;;5108521;28;20447;-77
2022/03/19 10:22:34;;;;;;;8.93;4.90;;;11.80;1.00;12.10;102687.00;;;;5108977;28;20497;-80
2022/03/19 10:25:07;;;;;;;6.73;4.07;;;11.90;1.00;12.20;102684.00;;;;5097306;28;20443;-78
2022/03/19 10:27:39;;;;;;;6.33;4.40;;;12.00;1.00;12.10;102691.00;;;;5097638;28;20546;-78
2022/03/19 10:30:13;;;;;;;8.70;3.93;;;11.90;1.00;12.20;102691.00;;;;5100733;28;20442;-79
2022/03/19 10:32:44;;;;;;;6.00;3.50;;;11.90;1.00;12.30;102692.00;;;;5089419;28;20458;-79
2022/03/19 10:35:28;;;;;;;7.03;3.83;;;12.10;1.00;12.30;102645.00;;;;5103353;28;20454;-79
2022/03/19 10:37:59;;;;;;;6.23;3.90;;;12.10;1.00;12.30;102683.00;;;;5109161;28;20474;-78
2022/03/19 10:40:40;;;;;;;5.97;4.40;;;12.20;1.00;12.40;102681.00;;;;5107495;28;20457;-78
2022/03/19 10:43:12;;;;;;;4.87;3.50;;;12.20;1.00;12.40;102669.00;;;;5106090;28;20491;-78
2022/03/19 10:45:45;;;;;;;7.60;4.20;;;12.30;1.00;12.60;102664.00;;;;5097569;28;20458;-77
2022/03/19 10:48:18;;;;;;;4.80;4.23;;;12.40;1.00;12.70;102638.00;;;;5092633;28;20526;-79
2022/03/19 10:50:47;;;;;;;9.30;5.23;;;12.60;1.00;12.80;102659.00;;;;5107369;28;20546;-82
2022/03/19 10:53:16;;;;;;;5.30;4.43;;;12.60;1.00;12.80;102662.00;;;;5085193;28;20541;-78
2022/03/19 10:55:44;;;;;;;8.17;5.20;;;12.70;1.00;12.90;102642.00;;;;5089931;28;20457;-80
2022/03/19 10:58:14;;;;;;;8.43;4.70;;;12.70;1.00;12.80;102625.00;;;;5084420;28;20474;-78
2022/03/19 11:01:03;;;;;;;8.17;4.90;;;12.70;1.00;12.90;102641.00;;;;5086252;28;20561;-78
2022/03/19 11:03:36;;;;;;;5.97;4.47;;;12.70;1.00;12.90;102651.00;;;;5090281;28;20873;-78
2022/03/19 11:06:07;;;;;;;4.70;3.73;;;12.70;1.00;12.80;102634.00;;;;5092263;28;20446;-78
2022/03/19 11:08:38;;;;;;;6.13;3.50;;;12.70;1.00;12.90;102619.00;;;;5094304;28;20851;-78
2022/03/19 11:11:12;;;;;;;5.87;3.00;;;12.70;1.00;13.00;102614.00;;;;5122868;27;20461;-81
2022/03/19 11:13:46;;;;;;;5.80;3.00;;;12.80;1.00;13.10;102599.00;;;;5102492;28;20554;-82
2022/03/19 11:16:16;;;;;;;6.60;3.53;;;12.90;1.00;13.10;102590.00;;;;5089331;28;20537;-83
2022/03/19 11:18:46;;;;;;;5.43;2.20;;;13.00;1.00;13.10;102570.00;;;;5109553;28;20464;-81
2022/03/19 11:21:15;;;;;;;5.07;2.30;;;12.90;1.00;13.20;102579.00;;;;5112440;28;20468;-80
2022/03/19 11:23:53;;;;;;;4.73;2.43;;;13.00;1.00;13.20;102570.00;;;;5106440;28;20567;-79
2022/03/19 11:26:26;;;;;;;3.40;2.43;;;13.00;1.00;13.30;102572.00;;;;5092756;28;20551;-80
2022/03/19 11:28:57;;;;;;;6.33;3.07;;;13.20;1.00;13.40;102549.00;;;;5089466;28;20484;-79
2022/03/19 11:31:29;;;;;;;4.87;1.60;;;13.40;1.00;13.40;102532.00;;;;5090497;28;20453;-79
2022/03/19 11:34:01;;;;;;;3.90;1.77;;;13.20;1.00;13.20;102545.00;;;;5088754;28;20464;-79
2022/03/19 11:36:30;;;;;;;3.97;1.30;;;13.20;1.00;13.30;102553.00;;;;5088961;28;20447;-79